createdAt,value
2019-05-25T00:00:43.505Z,62.10
2019-05-25T00:03:10.984Z,62.20
2019-05-25T00:05:38.452Z,62.40
2019-05-25T00:08:06.210Z,62.30
2019-05-25T00:10:33.675Z,62.50
2019-05-25T00:13:01.144Z,62.50
2019-05-25T00:15:28.608Z,62.50
2019-05-25T00:17:56.070Z,62.50
2019-05-25T00:20:23.544Z,62.50
2019-05-25T00:22:51.001Z,62.60
2019-05-25T00:25:18.498Z,62.70
2019-05-25T00:27:46.009Z,62.70
2019-05-25T00:30:13.494Z,62.80
2019-05-25T00:32:40.959Z,62.90
2019-05-25T00:35:08.421Z,62.70
2019-05-25T00:37:35.890Z,62.90
2019-05-25T00:40:06.367Z,63.10
2019-05-25T00:42:33.826Z,63.00
2019-05-25T00:45:01.291Z,63.00
2019-05-25T00:47:28.749Z,63.00
2019-05-25T00:49:56.218Z,63.90
2019-05-25T00:52:23.681Z,62.90
2019-05-25T00:54:51.147Z,63.00
2019-05-25T00:57:18.606Z,63.10
2019-05-25T00:59:46.074Z,63.00
2019-05-25T01:02:13.537Z,63.10
2019-05-25T01:04:40.997Z,63.10
2019-05-25T01:07:08.479Z,63.30
2019-05-25T01:09:36.001Z,63.20
2019-05-25T01:12:03.535Z,63.20
2019-05-25T01:14:31.055Z,63.20
2019-05-25T01:16:58.542Z,63.20
2019-05-25T01:19:26.019Z,63.20
2019-05-25T01:21:53.480Z,63.00
2019-05-25T01:24:20.933Z,63.10
2019-05-25T01:26:48.406Z,63.00
2019-05-25T01:29:15.877Z,63.00
2019-05-25T01:31:43.337Z,63.10
2019-05-25T01:34:10.839Z,63.20
2019-05-25T01:36:38.350Z,63.10
2019-05-25T01:39:06.387Z,63.10
2019-05-25T01:41:33.864Z,63.00
2019-05-25T01:44:01.317Z,63.30
2019-05-25T01:46:28.786Z,63.10
2019-05-25T01:48:56.255Z,62.90
2019-05-25T01:51:23.723Z,62.80
2019-05-25T01:53:51.181Z,62.90
2019-05-25T01:56:18.649Z,62.90
2019-05-25T01:58:46.119Z,62.90
2019-05-25T02:01:13.581Z,62.80
2019-05-25T02:03:41.051Z,63.10
2019-05-25T02:06:08.560Z,62.90
2019-05-25T02:08:36.066Z,62.90
2019-05-25T02:11:03.528Z,62.70
2019-05-25T02:13:31.008Z,62.70
2019-05-25T02:15:58.474Z,62.60
2019-05-25T02:18:25.943Z,62.80
2019-05-25T02:20:53.401Z,62.80
2019-05-25T02:23:20.874Z,62.90
2019-05-25T02:25:48.337Z,62.90
2019-05-25T02:28:15.815Z,63.00
2019-05-25T02:30:43.283Z,62.90
2019-05-25T02:33:10.746Z,63.00
2019-05-25T02:35:38.215Z,63.00
2019-05-25T02:38:05.683Z,63.00
2019-05-25T02:40:33.147Z,62.90
2019-05-25T02:43:00.627Z,62.80
2019-05-25T02:45:28.094Z,62.80
2019-05-25T02:47:55.573Z,62.80
2019-05-25T02:50:23.039Z,63.00
2019-05-25T02:52:50.518Z,63.70
2019-05-25T02:55:33.059Z,62.80
2019-05-25T02:57:47.169Z,63.00
2019-05-25T03:00:14.785Z,63.00
2019-05-25T03:02:42.292Z,62.80
2019-05-25T03:05:11.432Z,62.80
2019-05-25T03:07:38.906Z,63.00
2019-05-25T03:10:06.373Z,63.00
2019-05-25T03:12:33.844Z,62.90
2019-05-25T03:15:01.382Z,62.80
2019-05-25T03:17:28.966Z,63.00
2019-05-25T03:19:56.430Z,62.80
2019-05-25T03:22:24.042Z,62.80
2019-05-25T03:24:51.516Z,62.70
2019-05-25T03:27:19.277Z,63.00
2019-05-25T03:29:46.806Z,63.10
2019-05-25T03:32:14.283Z,63.00
2019-05-25T03:34:41.751Z,62.80
2019-05-25T03:37:09.231Z,62.80
2019-05-25T03:39:36.700Z,62.80
2019-05-25T03:42:04.181Z,62.80
2019-05-25T03:44:31.647Z,62.60
2019-05-25T03:46:59.113Z,62.70
2019-05-25T03:49:26.574Z,62.80
2019-05-25T03:51:54.059Z,62.70
2019-05-25T03:54:21.526Z,62.70
2019-05-25T03:56:48.992Z,62.80
2019-05-25T03:59:16.468Z,62.80
2019-05-25T04:01:43.929Z,62.60
2019-05-25T04:04:11.431Z,62.70
2019-05-25T04:06:38.950Z,62.70
2019-05-25T04:09:06.427Z,62.60
2019-05-25T04:11:33.962Z,62.60
2019-05-25T04:14:01.427Z,62.60
2019-05-25T04:16:28.889Z,62.60
2019-05-25T04:18:56.356Z,62.50
2019-05-25T04:21:23.818Z,62.50
2019-05-25T04:23:51.323Z,62.60
2019-05-25T04:26:22.596Z,62.60
2019-05-25T04:28:48.025Z,62.60
2019-05-25T04:31:15.490Z,62.70
2019-05-25T04:33:43.051Z,62.70
2019-05-25T04:36:10.513Z,62.70
2019-05-25T04:38:38.003Z,62.80
2019-05-25T04:41:05.543Z,62.80
2019-05-25T04:43:33.010Z,62.80
2019-05-25T04:46:00.476Z,62.70
2019-05-25T04:48:27.933Z,62.80
2019-05-25T04:50:55.645Z,62.80
2019-05-25T04:53:23.120Z,62.60
2019-05-25T04:55:50.583Z,62.70
2019-05-25T04:58:18.076Z,62.60
2019-05-25T05:00:45.589Z,62.50
2019-05-25T05:03:13.052Z,62.50
2019-05-25T05:05:40.509Z,62.60
2019-05-25T05:08:07.978Z,62.70
2019-05-25T05:10:35.441Z,62.70
2019-05-25T05:13:02.919Z,62.80
2019-05-25T05:15:30.368Z,62.60
2019-05-25T05:17:57.915Z,62.70
2019-05-25T05:20:28.234Z,62.50
2019-05-25T05:22:55.702Z,62.60
2019-05-25T05:25:23.507Z,62.50
2019-05-25T05:27:50.961Z,62.80
2019-05-25T05:30:20.140Z,62.60
2019-05-25T05:32:47.591Z,62.60
2019-05-25T05:35:15.062Z,62.60
2019-05-25T05:37:42.534Z,62.70
2019-05-25T05:40:10.251Z,62.70
2019-05-25T05:42:38.446Z,62.80
2019-05-25T05:45:06.885Z,62.70
2019-05-25T05:47:34.708Z,62.60
2019-05-25T05:50:02.350Z,61.70
2019-05-25T05:52:29.824Z,62.00
2019-05-25T05:54:57.283Z,61.30
2019-05-25T05:57:24.751Z,62.20
2019-05-25T05:59:52.224Z,62.30
2019-05-25T06:02:19.690Z,61.80
2019-05-25T06:04:47.163Z,61.00
2019-05-25T06:07:14.633Z,60.90
2019-05-25T06:09:42.095Z,60.50
2019-05-25T06:12:09.582Z,60.10
2019-05-25T06:14:37.056Z,59.70
2019-05-25T06:17:04.526Z,59.60
2019-05-25T06:19:31.995Z,59.40
2019-05-25T06:21:59.470Z,59.30
2019-05-25T06:24:26.958Z,58.40
2019-05-25T06:26:54.401Z,58.70
2019-05-25T06:29:21.859Z,58.60
2019-05-25T06:31:49.331Z,58.50
2019-05-25T06:34:16.790Z,58.40
2019-05-25T06:36:44.267Z,58.40
2019-05-25T06:39:11.725Z,58.40
2019-05-25T06:41:39.205Z,58.50
2019-05-25T06:44:06.665Z,58.40
2019-05-25T06:46:34.130Z,58.40
2019-05-25T06:49:01.590Z,58.30
2019-05-25T06:51:29.132Z,58.40
2019-05-25T06:53:56.602Z,58.40
2019-05-25T06:56:24.075Z,58.40
2019-05-25T06:58:51.779Z,58.40
2019-05-25T07:01:19.419Z,58.30
2019-05-25T07:03:46.943Z,58.40
2019-05-25T07:06:14.409Z,58.30
2019-05-25T07:08:41.882Z,58.30
2019-05-25T07:11:09.609Z,58.30
2019-05-25T07:13:37.145Z,58.30
2019-05-25T07:16:04.610Z,58.20
2019-05-25T07:18:35.287Z,58.20
2019-05-25T07:21:01.325Z,58.20
2019-05-25T07:23:28.784Z,58.30
2019-05-25T07:25:56.323Z,58.20
2019-05-25T07:28:23.790Z,58.30
2019-05-25T07:30:51.269Z,58.30
2019-05-25T07:33:18.860Z,58.30
2019-05-25T07:35:46.402Z,58.30
2019-05-25T07:38:13.880Z,58.30
2019-05-25T07:40:41.348Z,58.30
2019-05-25T07:43:08.938Z,57.90
2019-05-25T07:45:36.390Z,58.20
2019-05-25T07:48:03.875Z,58.30
2019-05-25T07:50:31.327Z,58.20
2019-05-25T07:52:58.803Z,58.20
2019-05-25T07:55:26.264Z,58.20
2019-05-25T07:57:53.805Z,58.20
2019-05-25T08:00:21.261Z,58.20
2019-05-25T08:02:48.748Z,58.20
2019-05-25T08:05:16.198Z,58.20
2019-05-25T08:07:43.765Z,57.90
2019-05-25T08:10:11.578Z,57.90
2019-05-25T08:12:39.089Z,57.90
2019-05-25T08:15:06.559Z,57.70
2019-05-25T08:17:34.028Z,57.90
2019-05-25T08:20:01.489Z,57.80
2019-05-25T08:22:28.977Z,57.70
2019-05-25T08:24:56.507Z,57.60
2019-05-25T08:27:23.991Z,57.90
2019-05-25T08:29:51.459Z,57.90
2019-05-25T08:32:18.941Z,57.90
2019-05-25T08:34:46.425Z,58.00
2019-05-25T08:37:13.913Z,57.70
2019-05-25T08:39:41.354Z,57.50
2019-05-25T08:42:08.833Z,57.50
2019-05-25T08:44:36.311Z,57.50
2019-05-25T08:47:03.775Z,57.80
2019-05-25T08:49:31.246Z,57.60
2019-05-25T08:51:58.803Z,57.50
2019-05-25T08:54:27.715Z,57.40
2019-05-25T08:56:56.068Z,57.60
2019-05-25T08:59:23.677Z,57.30
2019-05-25T09:01:51.165Z,57.40
2019-05-25T09:04:18.630Z,57.40
2019-05-25T09:06:46.103Z,57.40
2019-05-25T09:09:13.567Z,57.50
2019-05-25T09:11:41.025Z,57.40
2019-05-25T09:14:08.498Z,57.30
2019-05-25T09:16:35.953Z,57.40
2019-05-25T09:19:03.866Z,57.40
2019-05-25T09:21:31.383Z,57.40
2019-05-25T09:23:58.929Z,57.40
2019-05-25T09:26:26.399Z,57.40
2019-05-25T09:29:03.993Z,57.40
2019-05-25T09:31:23.049Z,57.50
2019-05-25T09:33:50.536Z,57.40
2019-05-25T09:36:17.985Z,57.50
2019-05-25T09:38:45.460Z,57.30
2019-05-25T09:41:12.928Z,57.30
2019-05-25T09:43:40.405Z,57.50
2019-05-25T09:46:07.866Z,57.40
2019-05-25T09:48:38.100Z,57.40
2019-05-25T09:51:04.531Z,57.50
2019-05-25T09:53:31.999Z,57.50
2019-05-25T09:55:59.463Z,57.60
2019-05-25T09:58:26.934Z,57.60
2019-05-25T10:00:54.390Z,57.60
2019-05-25T10:03:21.867Z,57.60
2019-05-25T10:05:49.326Z,57.70
2019-05-25T10:08:16.794Z,57.60
2019-05-25T10:10:44.274Z,57.60
2019-05-25T10:13:11.744Z,58.20
2019-05-25T10:15:39.202Z,57.50
2019-05-25T10:18:06.683Z,57.60
2019-05-25T10:20:34.152Z,57.60
2019-05-25T10:23:01.614Z,57.70
2019-05-25T10:25:29.149Z,57.70
2019-05-25T10:27:56.613Z,57.80
2019-05-25T10:30:24.087Z,57.90
2019-05-25T10:32:51.564Z,57.80
2019-05-25T10:35:19.039Z,57.70
2019-05-25T10:37:46.500Z,57.70
2019-05-25T10:40:14.007Z,57.60
2019-05-25T10:42:41.471Z,57.60
2019-05-25T10:45:08.953Z,57.50
2019-05-25T10:47:36.430Z,57.50
2019-05-25T10:50:05.509Z,57.40
2019-05-25T10:52:33.052Z,57.40
2019-05-25T10:55:00.527Z,57.40
2019-05-25T10:57:28.250Z,57.30
2019-05-25T10:59:55.714Z,57.10
2019-05-25T11:02:23.176Z,57.10
2019-05-25T11:04:50.632Z,57.00
2019-05-25T11:07:18.113Z,56.90
2019-05-25T11:09:45.587Z,57.00
2019-05-25T11:12:13.289Z,56.90
2019-05-25T11:14:40.762Z,56.90
2019-05-25T11:17:08.489Z,56.90
2019-05-25T11:19:35.948Z,56.80
2019-05-25T11:22:03.429Z,56.80
2019-05-25T11:24:30.890Z,56.70
2019-05-25T11:26:59.731Z,56.70
2019-05-25T11:29:27.302Z,56.70
2019-05-25T11:31:59.223Z,56.70
2019-05-25T11:34:23.976Z,56.70
2019-05-25T11:36:51.438Z,56.70
2019-05-25T11:39:18.915Z,56.70
2019-05-25T11:41:46.369Z,56.70
2019-05-25T11:44:13.838Z,56.70
2019-05-25T11:46:41.300Z,56.60
2019-05-25T11:49:21.687Z,56.70
2019-05-25T11:51:38.047Z,56.70
2019-05-25T11:54:05.523Z,56.60
2019-05-25T11:56:32.986Z,56.60
2019-05-25T11:59:00.440Z,56.60
2019-05-25T12:01:27.978Z,56.70
2019-05-25T12:03:55.441Z,56.60
2019-05-25T12:06:22.914Z,56.60
2019-05-25T12:08:50.381Z,56.70
2019-05-25T12:11:17.865Z,56.60
2019-05-25T12:13:45.331Z,56.60
2019-05-25T12:16:12.791Z,56.60
2019-05-25T12:18:40.258Z,56.60
2019-05-25T12:21:07.727Z,56.60
2019-05-25T12:23:35.201Z,56.60
2019-05-25T12:26:02.662Z,56.60
2019-05-25T12:28:30.125Z,56.60
2019-05-25T12:30:57.598Z,56.60
2019-05-25T12:33:25.062Z,56.60
2019-05-25T12:35:52.528Z,56.60
2019-05-25T12:38:20.002Z,56.60
2019-05-25T12:40:53.586Z,56.60
2019-05-25T12:43:16.664Z,56.60
2019-05-25T12:45:44.122Z,56.60
2019-05-25T12:48:11.591Z,56.60
2019-05-25T12:50:39.078Z,56.60
2019-05-25T12:53:06.557Z,56.60
2019-05-25T12:55:34.024Z,56.60
2019-05-25T12:58:01.476Z,56.60
2019-05-25T13:00:28.955Z,56.60
2019-05-25T13:02:56.425Z,56.60
2019-05-25T13:05:33.720Z,56.50
2019-05-25T13:07:53.061Z,56.50
2019-05-25T13:10:20.533Z,56.50
2019-05-25T13:12:47.995Z,56.40
2019-05-25T13:15:15.450Z,56.40
2019-05-25T13:17:42.930Z,56.30
2019-05-25T13:20:11.163Z,56.30
2019-05-25T13:22:38.632Z,56.30
2019-05-25T13:25:06.179Z,56.90
2019-05-25T13:27:33.648Z,56.30
2019-05-25T13:30:03.326Z,56.20
2019-05-25T13:32:30.319Z,56.20
2019-05-25T13:34:57.784Z,56.20
2019-05-25T13:37:25.258Z,56.20
2019-05-25T13:39:52.726Z,56.20
2019-05-25T13:42:20.198Z,56.20
2019-05-25T13:44:47.676Z,56.30
2019-05-25T13:47:15.139Z,56.30
2019-05-25T13:49:42.597Z,56.20
2019-05-25T13:52:10.071Z,56.20
2019-05-25T13:54:37.533Z,56.20
2019-05-25T13:57:05.002Z,56.20
2019-05-25T13:59:32.467Z,56.20
2019-05-25T14:01:59.926Z,56.20
2019-05-25T14:04:27.396Z,56.20
2019-05-25T14:06:54.867Z,56.20
2019-05-25T14:09:22.330Z,56.20
2019-05-25T14:11:49.790Z,56.20
2019-05-25T14:14:17.259Z,56.00
2019-05-25T14:16:44.735Z,56.10
2019-05-25T14:19:12.203Z,56.00
2019-05-25T14:21:39.671Z,56.00
2019-05-25T14:24:07.138Z,56.00
2019-05-25T14:26:34.616Z,56.00
2019-05-25T14:29:02.104Z,56.00
2019-05-25T14:31:44.378Z,56.00
2019-05-25T14:33:58.811Z,56.00
2019-05-25T14:36:26.335Z,55.90
2019-05-25T14:38:53.807Z,55.90
2019-05-25T14:41:21.280Z,55.90
2019-05-25T14:43:48.731Z,55.90
2019-05-25T14:46:27.518Z,55.80
2019-05-25T14:48:45.400Z,55.80
2019-05-25T14:51:12.869Z,55.80
2019-05-25T14:53:40.334Z,55.80
2019-05-25T14:56:07.807Z,55.80
2019-05-25T14:58:35.288Z,55.70
2019-05-25T15:01:02.758Z,55.80
2019-05-25T15:03:30.222Z,55.70
2019-05-25T15:05:57.687Z,55.70
2019-05-25T15:08:25.145Z,55.70
2019-05-25T15:10:52.615Z,55.70
2019-05-25T15:13:20.084Z,55.70
2019-05-25T15:15:47.538Z,55.60
2019-05-25T15:18:15.011Z,55.60
2019-05-25T15:20:42.733Z,55.60
2019-05-25T15:23:10.201Z,55.60
2019-05-25T15:25:37.661Z,55.50
2019-05-25T15:28:05.142Z,55.50
2019-05-25T15:30:32.678Z,55.50
2019-05-25T15:33:00.148Z,55.40
2019-05-25T15:35:27.616Z,55.40
2019-05-25T15:37:55.081Z,55.40
2019-05-25T15:40:22.548Z,55.40
2019-05-25T15:42:50.047Z,55.40
2019-05-25T15:45:17.509Z,55.30
2019-05-25T15:47:44.986Z,55.30
2019-05-25T15:50:12.515Z,55.30
2019-05-25T15:52:40.030Z,55.30
2019-05-25T15:55:07.674Z,55.30
2019-05-25T15:57:35.141Z,55.20
2019-05-25T16:00:04.384Z,55.20
2019-05-25T16:02:36.629Z,55.20
2019-05-25T16:05:01.113Z,55.20
2019-05-25T16:07:28.969Z,55.20
2019-05-25T16:09:56.426Z,55.10
2019-05-25T16:12:23.905Z,55.00
2019-05-25T16:14:51.366Z,55.00
2019-05-25T16:17:18.838Z,55.00
2019-05-25T16:19:46.297Z,55.00
2019-05-25T16:22:13.766Z,55.00
2019-05-25T16:24:41.226Z,55.00
2019-05-25T16:27:08.694Z,55.00
2019-05-25T16:29:36.155Z,55.00
2019-05-25T16:32:03.632Z,55.00
2019-05-25T16:34:31.106Z,55.00
2019-05-25T16:36:58.651Z,55.00
2019-05-25T16:39:26.155Z,54.90
2019-05-25T16:41:53.623Z,54.90
2019-05-25T16:44:21.093Z,54.90
2019-05-25T16:46:48.559Z,54.90
2019-05-25T16:49:16.033Z,54.80
2019-05-25T16:51:43.482Z,54.80
2019-05-25T16:54:10.954Z,54.80
2019-05-25T16:56:38.412Z,54.80
2019-05-25T16:59:05.883Z,54.80
2019-05-25T17:01:47.578Z,54.70
2019-05-25T17:04:02.561Z,54.70
2019-05-25T17:06:30.023Z,54.70
2019-05-25T17:08:57.506Z,54.70
2019-05-25T17:11:24.962Z,54.70
2019-05-25T17:13:52.433Z,54.70
2019-05-25T17:16:19.906Z,54.60
2019-05-25T17:18:47.366Z,54.50
2019-05-25T17:21:14.847Z,54.50
2019-05-25T17:23:42.306Z,54.50
2019-05-25T17:26:09.845Z,54.60
2019-05-25T17:28:37.431Z,54.50
2019-05-25T17:31:04.890Z,54.40
2019-05-25T17:33:45.575Z,54.40
2019-05-25T17:36:01.552Z,54.40
2019-05-25T17:38:29.019Z,54.40
2019-05-25T17:40:56.532Z,54.30
2019-05-25T17:43:24.017Z,54.30
2019-05-25T17:45:51.482Z,54.30
2019-05-25T17:48:18.964Z,54.30
2019-05-25T17:50:46.422Z,54.30
2019-05-25T17:53:13.875Z,54.30
2019-05-25T17:55:41.339Z,54.20
2019-05-25T17:58:08.816Z,54.20
2019-05-25T18:00:37.460Z,54.20
2019-05-25T18:03:04.920Z,54.10
2019-05-25T18:05:32.383Z,54.10
2019-05-25T18:07:59.889Z,54.10
2019-05-25T18:10:27.401Z,54.10
2019-05-25T18:12:54.904Z,54.10
2019-05-25T18:15:22.410Z,54.10
2019-05-25T18:17:49.882Z,54.10
2019-05-25T18:20:17.350Z,54.00
2019-05-25T18:22:44.815Z,54.00
2019-05-25T18:25:12.343Z,53.90
2019-05-25T18:27:39.812Z,53.90
2019-05-25T18:30:08.284Z,53.90
2019-05-25T18:32:35.738Z,53.90
2019-05-25T18:35:03.681Z,53.90
2019-05-25T18:37:31.147Z,53.80
2019-05-25T18:39:58.627Z,53.80
2019-05-25T18:42:30.072Z,53.80
2019-05-25T18:44:55.277Z,53.80
2019-05-25T18:47:22.748Z,53.70
2019-05-25T18:49:50.228Z,53.80
2019-05-25T18:52:17.702Z,53.80
2019-05-25T18:54:45.163Z,53.70
2019-05-25T18:57:12.660Z,53.70
2019-05-25T18:59:40.235Z,53.60
2019-05-25T19:02:07.746Z,53.60
2019-05-25T19:04:44.817Z,53.60
2019-05-25T19:07:04.387Z,53.40
2019-05-25T19:09:31.850Z,53.40
2019-05-25T19:11:59.326Z,53.40
2019-05-25T19:14:26.799Z,53.50
2019-05-25T19:16:54.257Z,53.40
2019-05-25T19:19:21.768Z,53.40
2019-05-25T19:21:49.290Z,53.50
2019-05-25T19:24:16.763Z,53.40
2019-05-25T19:26:44.217Z,53.50
2019-05-25T19:29:11.696Z,53.50
2019-05-25T19:31:39.164Z,53.50
2019-05-25T19:34:06.616Z,53.50
2019-05-25T19:36:34.079Z,53.50
2019-05-25T19:39:01.569Z,53.40
2019-05-25T19:41:29.063Z,53.40
2019-05-25T19:43:56.539Z,53.40
2019-05-25T19:46:24.012Z,53.30
2019-05-25T19:48:51.485Z,53.20
2019-05-25T19:51:18.954Z,53.40
2019-05-25T19:53:46.410Z,53.50
2019-05-25T19:56:13.870Z,53.50
2019-05-25T19:58:41.340Z,53.40
2019-05-25T20:01:08.820Z,53.50
2019-05-25T20:03:36.297Z,53.60
2019-05-25T20:06:03.767Z,53.70
2019-05-25T20:08:31.232Z,53.80
2019-05-25T20:10:58.720Z,53.80
2019-05-25T20:13:26.174Z,53.80
2019-05-25T20:15:53.642Z,53.80
2019-05-25T20:18:21.100Z,53.90
2019-05-25T20:20:48.598Z,54.00
2019-05-25T20:23:16.114Z,54.00
2019-05-25T20:25:43.583Z,54.00
2019-05-25T20:28:11.051Z,54.10
2019-05-25T20:30:38.532Z,54.10
2019-05-25T20:33:05.998Z,54.10
2019-05-25T20:35:33.904Z,54.10
2019-05-25T20:38:01.402Z,54.10
2019-05-25T20:40:28.870Z,54.10
2019-05-25T20:42:56.346Z,54.20
2019-05-25T20:45:23.818Z,54.20
2019-05-25T20:47:51.283Z,54.20
2019-05-25T20:50:18.745Z,54.30
2019-05-25T20:52:46.219Z,54.30
2019-05-25T20:55:13.675Z,54.30
2019-05-25T20:57:41.136Z,54.30
2019-05-25T21:00:09.368Z,54.30
2019-05-25T21:02:36.834Z,54.30
2019-05-25T21:05:05.917Z,54.30
2019-05-25T21:07:33.396Z,54.40
2019-05-25T21:10:00.868Z,54.30
2019-05-25T21:12:28.338Z,54.50
2019-05-25T21:14:55.802Z,54.30
2019-05-25T21:17:23.262Z,54.40
2019-05-25T21:19:50.759Z,54.40
2019-05-25T21:22:18.396Z,54.50
2019-05-25T21:24:46.120Z,54.50
2019-05-25T21:27:13.599Z,54.40
2019-05-25T21:29:41.069Z,54.40
2019-05-25T21:32:08.545Z,54.40
2019-05-25T21:34:36.003Z,54.40
2019-05-25T21:37:03.483Z,54.50
2019-05-25T21:39:30.941Z,54.50
2019-05-25T21:41:58.423Z,54.40
2019-05-25T21:44:25.876Z,54.50
2019-05-25T21:46:53.375Z,54.50
2019-05-25T21:49:20.818Z,54.50
2019-05-25T21:51:48.306Z,54.50
2019-05-25T21:54:15.833Z,54.50
2019-05-25T21:56:43.331Z,54.50
2019-05-25T21:59:10.865Z,54.60
2019-05-25T22:01:38.420Z,54.50
2019-05-25T22:04:05.879Z,55.20
2019-05-25T22:06:33.355Z,54.50
2019-05-25T22:09:00.855Z,54.50
2019-05-25T22:11:28.314Z,54.50
2019-05-25T22:13:55.791Z,54.50
2019-05-25T22:16:23.264Z,54.50
2019-05-25T22:18:50.742Z,54.60
2019-05-25T22:21:18.202Z,54.50
2019-05-25T22:23:48.353Z,54.60
2019-05-25T22:26:15.823Z,54.50
2019-05-25T22:28:45.111Z,54.50
2019-05-25T22:31:12.474Z,54.60
2019-05-25T22:33:39.944Z,54.60
2019-05-25T22:36:07.403Z,54.60
2019-05-25T22:38:34.870Z,54.60
2019-05-25T22:41:02.345Z,54.70
2019-05-25T22:43:29.818Z,54.70
2019-05-25T22:45:57.282Z,54.70
2019-05-25T22:48:24.753Z,54.70
2019-05-25T22:50:52.210Z,54.60
2019-05-25T22:53:19.686Z,54.70
2019-05-25T22:55:47.146Z,54.70
2019-05-25T22:58:14.601Z,54.60
2019-05-25T23:00:42.067Z,54.70
2019-05-25T23:03:09.539Z,54.60
2019-05-25T23:05:36.999Z,54.70
2019-05-25T23:08:04.487Z,54.80
2019-05-25T23:10:31.951Z,54.70
2019-05-25T23:12:59.428Z,54.70
2019-05-25T23:15:26.894Z,54.70
2019-05-25T23:17:54.362Z,54.70
2019-05-25T23:20:21.813Z,54.70
2019-05-25T23:22:49.290Z,54.70
2019-05-25T23:25:16.745Z,54.70
2019-05-25T23:27:44.222Z,54.70
2019-05-25T23:30:11.843Z,54.70
2019-05-25T23:32:39.334Z,54.70
2019-05-25T23:35:06.790Z,54.70
2019-05-25T23:37:34.266Z,54.70
2019-05-25T23:40:01.744Z,54.70
2019-05-25T23:42:29.215Z,54.70
2019-05-25T23:44:56.670Z,54.70
2019-05-25T23:47:24.153Z,54.70
2019-05-25T23:49:51.609Z,54.70
2019-05-25T23:52:19.083Z,54.70
2019-05-25T23:54:46.555Z,54.70
2019-05-25T23:57:14.024Z,54.70
2019-05-25T23:59:41.490Z,54.70
